Time;durP1;ratioP1;P1;durP2;ratioP2;P2;SDS_P1;SDS_P2;PMS_P1;PMS_P2;Temp;Humidity;BMP_temperature;BMP_pressure;BME280_temperature;BME280_humidity;BME280_pressure;Samples;Min_cycle;Max_cycle;Signal;HPM_P1;HPM_P2
2023/04/30 00:01:28;;;;;;;2.90;2.42;;;11.30;64.90;;;;;;5070826;28;20039;-57
2023/04/30 00:03:54;;;;;;;2.30;2.10;;;11.40;65.00;;;;;;5070017;28;20063;-58
2023/04/30 00:06:20;;;;;;;3.70;2.35;;;11.30;65.10;;;;;;5072401;28;20029;-59
2023/04/30 00:08:46;;;;;;;2.65;2.45;;;11.30;65.40;;;;;;5070059;28;20105;-59
2023/04/30 00:11:11;;;;;;;2.78;2.42;;;11.30;65.60;;;;;;5071938;28;20387;-59
2023/04/30 00:13:37;;;;;;;3.10;2.45;;;11.30;65.70;;;;;;5068748;28;20043;-59
2023/04/30 00:16:03;;;;;;;2.60;2.30;;;11.30;65.90;;;;;;5064589;28;20029;-60
2023/04/30 00:18:29;;;;;;;2.33;2.13;;;11.30;65.90;;;;;;5070149;28;20032;-58
2023/04/30 00:20:54;;;;;;;3.10;2.42;;;11.20;65.90;;;;;;5074715;28;20086;-57
2023/04/30 00:23:20;;;;;;;3.08;2.15;;;11.20;66.00;;;;;;5068275;28;20029;-57
2023/04/30 00:25:46;;;;;;;3.38;2.55;;;11.20;66.20;;;;;;5073816;28;20028;-57
2023/04/30 00:28:11;;;;;;;2.58;2.38;;;11.20;66.30;;;;;;5073268;28;20056;-57
2023/04/30 00:30:37;;;;;;;2.63;2.30;;;11.20;66.30;;;;;;5073002;28;20101;-50
2023/04/30 00:33:02;;;;;;;2.72;2.42;;;11.20;66.00;;;;;;5071718;28;20064;-51
2023/04/30 00:35:28;;;;;;;2.25;2.05;;;11.20;65.90;;;;;;5072809;28;20083;-58
2023/04/30 00:37:54;;;;;;;3.15;2.30;;;11.10;65.60;;;;;;5073024;28;20032;-60
2023/04/30 00:40:19;;;;;;;2.90;2.58;;;11.10;65.70;;;;;;5069923;28;20025;-59
2023/04/30 00:42:45;;;;;;;2.50;2.30;;;11.10;65.90;;;;;;5068224;28;20467;-59
2023/04/30 00:45:11;;;;;;;3.25;2.60;;;11.10;66.10;;;;;;5068800;28;20039;-59
2023/04/30 00:47:37;;;;;;;2.53;2.33;;;11.10;66.20;;;;;;5066473;28;20025;-59
2023/04/30 00:50:02;;;;;;;2.40;2.22;;;11.00;66.10;;;;;;5068719;28;20028;-59
2023/04/30 00:52:28;;;;;;;3.22;2.22;;;11.00;66.40;;;;;;5061413;28;20036;-59
2023/04/30 00:54:54;;;;;;;2.35;2.15;;;11.00;66.50;;;;;;5065386;28;20094;-59
2023/04/30 00:57:21;;;;;;;2.78;2.40;;;11.00;66.50;;;;;;5062864;28;20024;-59
2023/04/30 00:59:47;;;;;;;2.58;2.38;;;11.00;66.40;;;;;;5071830;28;20048;-59
2023/04/30 01:02:14;;;;;;;2.28;2.10;;;11.00;66.60;;;;;;5064018;28;20467;-59
2023/04/30 01:04:40;;;;;;;3.47;2.67;;;10.90;66.40;;;;;;5067354;28;20028;-59
2023/04/30 01:07:06;;;;;;;2.72;2.22;;;11.00;66.80;;;;;;5071423;28;20052;-59
2023/04/30 01:09:32;;;;;;;3.58;2.55;;;10.90;66.90;;;;;;5065191;28;20151;-59
2023/04/30 01:12:12;;;;;;;2.72;2.50;;;10.90;66.70;;;;;;5070837;28;20033;-59
2023/04/30 01:14:59;;;;;;;2.43;2.23;;;10.90;66.80;;;;;;5067289;28;20032;-59
2023/04/30 01:17:35;;;;;;;1.95;1.85;;;10.90;66.90;;;;;;5064168;28;20029;-59
2023/04/30 01:20:01;;;;;;;2.42;2.22;;;10.80;66.90;;;;;;5067260;28;20033;-59
2023/04/30 01:22:27;;;;;;;2.60;2.40;;;10.80;66.90;;;;;;5071998;28;20032;-59
2023/04/30 01:25:11;;;;;;;3.95;2.45;;;10.80;67.10;;;;;;5067427;28;20033;-58
2023/04/30 01:28:02;;;;;;;2.40;2.20;;;10.80;67.10;;;;;;5070688;28;20024;-59
2023/04/30 01:30:30;;;;;;;3.03;2.35;;;10.80;66.90;;;;;;5071265;28;20036;-59
2023/04/30 01:32:56;;;;;;;2.47;2.17;;;10.80;67.10;;;;;;5070118;28;20383;-59
2023/04/30 01:35:40;;;;;;;2.65;2.35;;;10.80;67.10;;;;;;5059977;28;20028;-59
2023/04/30 01:38:29;;;;;;;2.60;2.40;;;10.80;67.20;;;;;;5063393;28;20029;-60
2023/04/30 01:41:33;;;;;;;2.42;2.20;;;10.70;67.20;;;;;;5062012;28;20037;-59
2023/04/30 01:44:14;;;;;;;4.07;2.33;;;10.70;67.20;;;;;;5060000;28;20463;-58
2023/04/30 01:46:41;;;;;;;2.47;2.28;;;10.70;67.50;;;;;;5063100;28;20057;-59
2023/04/30 01:49:22;;;;;;;2.03;1.92;;;10.70;67.40;;;;;;5066465;28;20464;-59
2023/04/30 01:51:55;;;;;;;2.35;2.17;;;10.70;67.30;;;;;;5066128;28;20035;-59
2023/04/30 01:54:30;;;;;;;2.50;2.30;;;10.70;67.30;;;;;;5065982;28;20466;-59
2023/04/30 01:57:31;;;;;;;2.40;2.20;;;10.70;67.50;;;;;;5073584;28;20736;-59
2023/04/30 01:59:57;;;;;;;2.53;2.33;;;10.60;67.30;;;;;;5063167;28;20028;-59
2023/04/30 02:02:22;;;;;;;2.45;2.08;;;10.60;67.70;;;;;;5066449;28;20029;-53
2023/04/30 02:04:48;;;;;;;3.47;2.60;;;10.60;67.50;;;;;;5066253;28;20038;-50
2023/04/30 02:07:30;;;;;;;2.72;2.33;;;10.60;67.50;;;;;;5067109;28;20088;-57
2023/04/30 02:09:56;;;;;;;3.25;2.17;;;10.60;67.70;;;;;;5076626;28;20090;-57
2023/04/30 02:12:22;;;;;;;2.90;2.40;;;10.60;67.70;;;;;;5071402;28;20025;-59
2023/04/30 02:14:47;;;;;;;2.38;2.20;;;10.60;67.70;;;;;;5068110;28;20036;-60
2023/04/30 02:17:13;;;;;;;2.67;2.22;;;10.60;67.70;;;;;;5059243;28;20418;-61
2023/04/30 02:19:38;;;;;;;2.63;2.28;;;10.60;67.70;;;;;;5074941;28;20094;-60
2023/04/30 02:22:04;;;;;;;2.60;2.40;;;10.50;67.80;;;;;;5071451;28;20070;-50
2023/04/30 02:24:30;;;;;;;5.20;2.85;;;10.60;67.90;;;;;;5071704;28;20031;-50
2023/04/30 02:26:55;;;;;;;2.80;2.53;;;10.50;67.60;;;;;;5071666;28;20020;-49
2023/04/30 02:29:21;;;;;;;2.85;2.55;;;10.50;67.50;;;;;;5070948;28;20440;-49
2023/04/30 02:31:46;;;;;;;2.78;2.55;;;10.50;67.70;;;;;;5078397;28;20036;-61
2023/04/30 02:34:12;;;;;;;2.92;2.60;;;10.50;67.60;;;;;;5070358;28;20074;-60
2023/04/30 02:36:38;;;;;;;3.38;2.85;;;10.50;67.70;;;;;;5057118;28;20033;-59
2023/04/30 02:39:03;;;;;;;2.92;2.40;;;10.40;67.80;;;;;;5070390;28;20440;-59
2023/04/30 02:41:29;;;;;;;2.63;2.42;;;10.50;67.90;;;;;;5071319;28;20038;-58
2023/04/30 02:43:55;;;;;;;2.90;2.58;;;10.40;67.70;;;;;;5069879;28;20564;-59
2023/04/30 02:46:20;;;;;;;2.50;2.30;;;10.40;67.80;;;;;;5068641;28;20025;-57
2023/04/30 02:48:46;;;;;;;3.45;2.40;;;10.40;67.90;;;;;;5078175;28;20029;-58
2023/04/30 02:51:12;;;;;;;3.15;2.60;;;10.40;67.90;;;;;;5061142;28;20455;-49
2023/04/30 02:53:37;;;;;;;2.75;2.50;;;10.40;67.70;;;;;;5070269;28;20093;-50
2023/04/30 02:56:03;;;;;;;2.38;2.22;;;10.40;67.60;;;;;;5069517;28;20378;-58
2023/04/30 02:58:29;;;;;;;3.05;2.70;;;10.40;67.70;;;;;;5069623;28;20033;-57
2023/04/30 03:00:55;;;;;;;3.70;2.42;;;10.30;67.70;;;;;;5077016;28;20122;-57
2023/04/30 03:03:20;;;;;;;3.42;2.80;;;10.40;68.00;;;;;;5071050;28;20486;-56
2023/04/30 03:05:46;;;;;;;2.70;2.50;;;10.30;67.70;;;;;;5062244;28;20024;-57
2023/04/30 03:08:11;;;;;;;3.47;2.92;;;10.30;68.00;;;;;;5066884;28;20075;-57
2023/04/30 03:10:37;;;;;;;2.97;2.63;;;10.30;68.10;;;;;;5068360;28;20063;-59
2023/04/30 03:13:03;;;;;;;3.00;2.50;;;10.40;68.10;;;;;;5064773;28;20047;-59
2023/04/30 03:15:31;;;;;;;2.70;2.47;;;10.30;68.00;;;;;;5060237;28;20035;-57
2023/04/30 03:17:56;;;;;;;3.78;2.60;;;10.30;67.70;;;;;;5057346;28;20086;-57
2023/04/30 03:20:22;;;;;;;2.92;2.65;;;10.30;67.70;;;;;;5062896;28;20028;-58
2023/04/30 03:22:48;;;;;;;2.70;2.50;;;10.30;67.70;;;;;;5058597;28;20390;-58
2023/04/30 03:25:13;;;;;;;2.70;2.50;;;10.30;67.60;;;;;;5055292;28;20122;-58
2023/04/30 03:27:39;;;;;;;3.78;2.80;;;10.30;68.20;;;;;;5055154;28;20033;-58
2023/04/30 03:30:06;;;;;;;3.03;2.67;;;10.30;68.00;;;;;;5067331;28;20124;-57
2023/04/30 03:32:31;;;;;;;2.60;2.40;;;10.30;68.30;;;;;;5068735;28;20039;-57
2023/04/30 03:34:57;;;;;;;3.38;2.80;;;10.30;68.20;;;;;;5070778;28;20024;-57
2023/04/30 03:37:23;;;;;;;3.47;2.90;;;10.30;68.00;;;;;;5075075;28;20016;-58
2023/04/30 03:39:48;;;;;;;5.00;3.20;;;10.30;67.90;;;;;;5068179;28;20359;-59
2023/04/30 03:42:14;;;;;;;3.33;2.40;;;10.30;67.70;;;;;;5069602;28;20035;-50
2023/04/30 03:44:40;;;;;;;3.30;2.55;;;10.30;67.80;;;;;;5067997;28;20058;-51
2023/04/30 03:47:06;;;;;;;3.05;2.50;;;10.30;67.90;;;;;;5067937;28;20604;-51
2023/04/30 03:49:31;;;;;;;3.30;2.63;;;10.30;68.10;;;;;;5074356;28;20101;-47
2023/04/30 03:51:57;;;;;;;3.00;2.50;;;10.30;68.20;;;;;;5069180;28;20042;-57
2023/04/30 03:54:23;;;;;;;5.15;2.90;;;10.30;67.90;;;;;;5069354;28;20025;-57
2023/04/30 03:56:48;;;;;;;2.65;2.30;;;10.30;68.00;;;;;;5063522;28;20171;-56
2023/04/30 03:59:14;;;;;;;3.67;3.05;;;10.30;67.70;;;;;;5064352;28;20594;-57
2023/04/30 04:01:40;;;;;;;3.20;2.60;;;10.30;67.40;;;;;;5066175;28;20036;-48
2023/04/30 04:04:06;;;;;;;3.40;2.60;;;10.30;67.20;;;;;;5065302;28;20151;-52
2023/04/30 04:06:32;;;;;;;3.30;2.75;;;10.20;67.50;;;;;;5063327;28;20033;-58
2023/04/30 04:08:58;;;;;;;2.78;2.55;;;10.30;67.40;;;;;;5070584;28;20053;-58
2023/04/30 04:11:23;;;;;;;5.65;3.20;;;10.30;67.70;;;;;;5064413;28;20078;-56
2023/04/30 04:13:49;;;;;;;3.47;2.50;;;10.30;67.70;;;;;;5064141;28;20025;-60
2023/04/30 04:16:14;;;;;;;2.95;2.58;;;10.20;67.50;;;;;;5063154;28;20021;-58
2023/04/30 04:18:40;;;;;;;3.65;2.70;;;10.30;67.70;;;;;;5064988;28;20437;-59
2023/04/30 04:21:06;;;;;;;2.83;2.60;;;10.30;67.50;;;;;;5071746;28;20043;-48
2023/04/30 04:23:32;;;;;;;2.45;2.25;;;10.30;67.50;;;;;;5068158;28;20033;-47
2023/04/30 04:25:59;;;;;;;4.07;2.75;;;10.30;67.50;;;;;;5065191;28;20039;-49
2023/04/30 04:28:25;;;;;;;3.63;2.58;;;10.30;67.90;;;;;;5072260;28;20020;-54
2023/04/30 04:30:51;;;;;;;2.60;2.40;;;10.30;67.50;;;;;;5068894;28;20028;-62
2023/04/30 04:33:17;;;;;;;3.00;2.45;;;10.30;67.40;;;;;;5063689;28;20061;-59
2023/04/30 04:35:43;;;;;;;3.67;2.75;;;10.30;67.30;;;;;;5057023;28;20123;-59
2023/04/30 04:38:08;;;;;;;3.03;2.72;;;10.30;67.10;;;;;;5066942;28;20078;-60
2023/04/30 04:40:34;;;;;;;2.90;2.60;;;10.30;66.90;;;;;;5058052;28;20123;-61
2023/04/30 04:43:00;;;;;;;3.47;2.90;;;10.20;66.90;;;;;;5060004;28;20025;-61
2023/04/30 04:45:25;;;;;;;3.45;2.70;;;10.20;66.80;;;;;;5060665;28;20471;-59
2023/04/30 04:47:51;;;;;;;3.15;2.70;;;10.20;66.90;;;;;;5066186;28;20032;-59
2023/04/30 04:50:17;;;;;;;2.80;2.53;;;10.20;67.10;;;;;;5073046;28;20032;-56
2023/04/30 04:52:42;;;;;;;2.83;2.60;;;10.30;66.70;;;;;;5067896;28;20086;-57
2023/04/30 04:55:08;;;;;;;2.65;2.30;;;10.20;66.60;;;;;;5067295;28;20051;-58
2023/04/30 04:57:34;;;;;;;2.83;2.60;;;10.30;66.50;;;;;;5071445;28;20071;-56
2023/04/30 04:59:59;;;;;;;2.88;2.53;;;10.30;66.90;;;;;;5067338;28;20056;-56
2023/04/30 05:02:25;;;;;;;2.50;2.30;;;10.30;66.60;;;;;;5065814;28;20062;-56
2023/04/30 05:04:51;;;;;;;2.67;2.45;;;10.30;66.40;;;;;;5070814;28;20024;-57
2023/04/30 05:07:17;;;;;;;2.38;2.25;;;10.30;66.30;;;;;;5069999;28;20048;-58
2023/04/30 05:09:46;;;;;;;2.40;2.20;;;10.30;66.50;;;;;;5077606;28;20487;-59
2023/04/30 05:12:13;;;;;;;2.60;2.40;;;10.30;66.40;;;;;;5077192;28;20081;-59
2023/04/30 05:14:38;;;;;;;2.60;2.40;;;10.30;66.30;;;;;;5076033;28;20065;-59
2023/04/30 05:17:05;;;;;;;3.55;2.50;;;10.30;66.00;;;;;;5071106;28;20044;-57
2023/04/30 05:19:31;;;;;;;2.95;2.50;;;10.30;66.10;;;;;;5065373;28;20032;-58
2023/04/30 05:21:57;;;;;;;2.60;2.25;;;10.30;65.90;;;;;;5070613;28;20032;-48
2023/04/30 05:24:23;;;;;;;3.30;2.40;;;10.30;65.90;;;;;;5068146;28;20094;-50
2023/04/30 05:26:49;;;;;;;2.30;2.10;;;10.30;65.70;;;;;;5070392;28;20454;-58
2023/04/30 05:29:14;;;;;;;2.58;2.20;;;10.30;65.80;;;;;;5063302;28;20609;-59
2023/04/30 05:31:40;;;;;;;2.75;2.30;;;10.30;65.80;;;;;;5062555;28;20028;-50
2023/04/30 05:34:06;;;;;;;2.40;2.20;;;10.30;65.90;;;;;;5067736;28;20025;-51
2023/04/30 05:36:32;;;;;;;2.25;2.05;;;10.30;65.60;;;;;;5067675;28;20064;-58
2023/04/30 05:38:58;;;;;;;3.47;2.30;;;10.40;65.40;;;;;;5065770;28;20198;-58
2023/04/30 05:41:23;;;;;;;2.65;2.30;;;10.40;65.60;;;;;;5063510;28;20487;-58
2023/04/30 05:43:49;;;;;;;2.75;2.13;;;10.40;65.30;;;;;;5075282;28;20029;-59
2023/04/30 05:46:15;;;;;;;2.05;1.95;;;10.40;65.30;;;;;;5070176;28;20048;-51
2023/04/30 05:48:40;;;;;;;2.17;1.98;;;10.40;65.50;;;;;;5067386;28;20036;-48
2023/04/30 05:51:06;;;;;;;2.40;2.20;;;10.50;65.40;;;;;;5063576;28;20428;-48
2023/04/30 05:53:32;;;;;;;2.60;2.40;;;10.50;65.30;;;;;;5064068;28;20525;-48
2023/04/30 05:55:58;;;;;;;3.22;2.10;;;10.50;64.90;;;;;;5069478;28;20107;-51
2023/04/30 05:58:24;;;;;;;2.55;2.35;;;10.50;65.10;;;;;;5062352;28;20031;-50
2023/04/30 06:00:51;;;;;;;2.47;2.22;;;10.50;65.20;;;;;;5064784;28;20421;-47
2023/04/30 06:03:18;;;;;;;2.22;2.03;;;10.60;65.10;;;;;;5068607;28;20381;-52
2023/04/30 06:05:44;;;;;;;2.90;2.28;;;10.60;65.30;;;;;;5070263;28;20448;-58
2023/04/30 06:08:09;;;;;;;2.58;2.20;;;10.60;64.80;;;;;;5062411;28;20044;-56
2023/04/30 06:10:35;;;;;;;2.55;2.30;;;10.60;64.60;;;;;;5062866;28;20036;-59
2023/04/30 06:13:01;;;;;;;2.80;2.10;;;10.60;64.30;;;;;;5064340;28;20028;-58
2023/04/30 06:15:27;;;;;;;2.40;2.20;;;10.70;64.10;;;;;;5062664;28;20043;-58
2023/04/30 06:17:52;;;;;;;2.75;2.28;;;10.70;64.10;;;;;;5063468;28;20087;-59
2023/04/30 06:20:18;;;;;;;2.30;2.08;;;10.70;64.20;;;;;;5061750;28;20538;-59
2023/04/30 06:22:43;;;;;;;2.38;1.83;;;10.70;64.20;;;;;;5066039;28;20078;-60
2023/04/30 06:25:09;;;;;;;2.40;2.20;;;10.80;64.20;;;;;;5064075;28;20467;-56
2023/04/30 06:27:35;;;;;;;2.58;2.38;;;10.80;63.60;;;;;;5065566;28;20040;-58
2023/04/30 06:30:00;;;;;;;2.78;2.25;;;10.90;63.30;;;;;;5064385;28;20441;-58
2023/04/30 06:32:26;;;;;;;2.35;2.13;;;10.90;63.40;;;;;;5060123;28;20090;-59
2023/04/30 06:34:52;;;;;;;3.55;2.30;;;11.00;63.30;;;;;;5067934;28;20526;-60
2023/04/30 06:37:18;;;;;;;2.33;2.13;;;11.00;63.30;;;;;;5062478;28;20060;-59
2023/04/30 06:39:43;;;;;;;3.05;2.22;;;11.10;63.30;;;;;;5066712;28;20115;-59
2023/04/30 06:42:09;;;;;;;2.63;2.42;;;11.20;63.00;;;;;;5066063;28;20028;-59
2023/04/30 06:44:34;;;;;;;2.67;2.20;;;11.20;62.70;;;;;;5063128;28;20064;-59
2023/04/30 06:47:01;;;;;;;2.30;2.10;;;11.30;63.00;;;;;;5068611;28;20024;-56
2023/04/30 06:49:27;;;;;;;2.60;2.35;;;11.40;62.70;;;;;;5063358;28;20028;-57
2023/04/30 06:51:54;;;;;;;2.00;1.90;;;11.40;62.30;;;;;;5067297;28;20059;-58
2023/04/30 06:54:21;;;;;;;2.92;2.00;;;11.40;62.40;;;;;;5061221;28;20036;-59
2023/04/30 06:56:47;;;;;;;2.10;1.98;;;11.50;62.90;;;;;;5057472;28;20031;-59
2023/04/30 06:59:13;;;;;;;2.40;2.20;;;11.50;62.60;;;;;;5058128;28;20032;-60
2023/04/30 07:01:39;;;;;;;2.20;2.00;;;11.60;62.70;;;;;;5058062;28;20513;-59
2023/04/30 07:04:05;;;;;;;2.30;2.10;;;11.60;62.50;;;;;;5059719;28;20024;-60
2023/04/30 07:06:31;;;;;;;2.42;2.22;;;11.60;62.20;;;;;;5061330;28;20035;-60
2023/04/30 07:08:56;;;;;;;2.05;1.95;;;11.60;62.00;;;;;;5059242;28;20047;-59
2023/04/30 07:11:22;;;;;;;2.40;1.90;;;11.60;62.30;;;;;;5056664;28;20070;-59
2023/04/30 07:13:48;;;;;;;2.17;2.08;;;11.60;62.20;;;;;;5065999;28;20383;-59
2023/04/30 07:16:15;;;;;;;2.20;2.00;;;11.60;62.00;;;;;;5062417;28;20523;-57
2023/04/30 07:18:41;;;;;;;1.98;1.85;;;11.50;62.10;;;;;;5060713;28;20063;-59
2023/04/30 07:21:07;;;;;;;2.72;2.08;;;11.50;62.40;;;;;;5063796;28;20158;-46
2023/04/30 07:23:33;;;;;;;2.40;2.20;;;11.50;62.60;;;;;;5060069;28;20025;-49
2023/04/30 07:25:59;;;;;;;2.78;2.10;;;11.50;62.90;;;;;;5066196;28;20024;-57
2023/04/30 07:28:25;;;;;;;2.35;2.15;;;11.40;63.20;;;;;;5066930;28;20033;-57
2023/04/30 07:30:51;;;;;;;2.55;2.20;;;11.40;63.20;;;;;;5068277;28;20033;-58
2023/04/30 07:33:17;;;;;;;2.35;2.00;;;11.40;63.30;;;;;;5061705;28;20035;-57
2023/04/30 07:35:43;;;;;;;2.10;2.00;;;11.40;63.50;;;;;;5068181;28;20028;-57
2023/04/30 07:38:09;;;;;;;2.70;2.08;;;11.40;63.80;;;;;;5059216;28;20452;-56
2023/04/30 07:40:34;;;;;;;2.95;2.10;;;11.40;63.80;;;;;;5059577;28;20032;-57
2023/04/30 07:43:00;;;;;;;2.58;2.00;;;11.40;64.20;;;;;;5065618;28;20036;-58
2023/04/30 07:45:25;;;;;;;2.38;2.05;;;11.50;64.00;;;;;;5062197;28;20509;-54
2023/04/30 07:47:51;;;;;;;1.80;1.70;;;11.50;64.70;;;;;;5065576;28;20044;-56
2023/04/30 07:50:17;;;;;;;2.00;1.90;;;11.60;63.50;;;;;;5068113;28;20036;-58
2023/04/30 07:52:43;;;;;;;2.42;2.22;;;11.60;63.80;;;;;;5072482;28;20047;-58
2023/04/30 07:55:09;;;;;;;2.92;2.08;;;11.70;63.60;;;;;;5060113;28;20067;-56
2023/04/30 07:57:35;;;;;;;2.85;2.20;;;11.70;63.30;;;;;;5065707;28;20032;-55
2023/04/30 08:00:00;;;;;;;2.33;1.88;;;11.70;63.50;;;;;;5068924;28;20043;-58
2023/04/30 08:02:26;;;;;;;2.00;1.90;;;11.70;63.30;;;;;;5056809;28;20033;-55
2023/04/30 08:04:52;;;;;;;2.00;1.90;;;11.70;63.40;;;;;;5055003;28;20033;-55
2023/04/30 08:07:17;;;;;;;2.28;2.08;;;11.70;63.80;;;;;;5063846;28;20055;-50
2023/04/30 08:09:43;;;;;;;1.92;1.83;;;11.70;63.70;;;;;;5061786;28;20074;-47
2023/04/30 08:12:09;;;;;;;3.35;2.10;;;11.80;63.80;;;;;;5063943;28;20032;-61
2023/04/30 08:14:34;;;;;;;2.33;2.03;;;11.80;63.80;;;;;;5062750;28;20035;-60
2023/04/30 08:17:01;;;;;;;2.28;2.08;;;11.80;63.90;;;;;;5072368;28;20391;-56
2023/04/30 08:19:27;;;;;;;2.35;1.92;;;11.80;63.90;;;;;;5069276;28;20063;-55
2023/04/30 08:21:53;;;;;;;2.30;2.10;;;11.80;64.00;;;;;;5071630;28;20052;-57
2023/04/30 08:24:18;;;;;;;2.08;1.98;;;11.80;63.90;;;;;;5061587;28;20596;-59
2023/04/30 08:26:44;;;;;;;2.20;2.00;;;11.80;63.90;;;;;;5073596;28;20032;-61
2023/04/30 08:29:10;;;;;;;1.95;1.85;;;11.90;63.80;;;;;;5060114;28;20028;-61
2023/04/30 08:31:36;;;;;;;2.80;2.10;;;11.90;63.50;;;;;;5059527;28;20109;-61
2023/04/30 08:34:01;;;;;;;2.08;1.85;;;11.90;63.50;;;;;;5071353;28;20235;-61
2023/04/30 08:36:27;;;;;;;2.25;2.05;;;11.90;63.20;;;;;;5067351;28;20036;-60
2023/04/30 08:38:53;;;;;;;1.88;1.75;;;11.90;63.20;;;;;;5067984;28;20111;-60
2023/04/30 08:41:21;;;;;;;2.10;2.00;;;11.90;63.10;;;;;;5070542;28;20033;-55
2023/04/30 08:43:51;;;;;;;1.95;1.85;;;12.00;63.00;;;;;;5067167;28;20041;-54
2023/04/30 08:46:18;;;;;;;1.90;1.80;;;12.00;62.80;;;;;;5072114;28;20031;-56
2023/04/30 08:48:44;;;;;;;2.03;1.90;;;12.00;62.60;;;;;;5065986;28;20037;-56
2023/04/30 08:51:10;;;;;;;1.90;1.77;;;12.10;62.80;;;;;;5069994;28;20358;-57
2023/04/30 08:53:37;;;;;;;1.88;1.77;;;12.10;62.60;;;;;;5069892;28;20044;-57
2023/04/30 08:56:03;;;;;;;2.00;1.77;;;12.20;62.80;;;;;;5071363;28;20025;-54
2023/04/30 08:58:29;;;;;;;2.30;2.10;;;12.20;62.40;;;;;;5070259;28;20040;-55
2023/04/30 09:00:58;;;;;;;2.17;1.95;;;12.20;62.20;;;;;;5062520;28;20029;-57
2023/04/30 09:03:24;;;;;;;1.85;1.75;;;12.20;62.10;;;;;;5061839;28;20032;-57
2023/04/30 09:05:50;;;;;;;1.98;1.88;;;12.20;62.00;;;;;;5073640;28;20040;-57
2023/04/30 09:08:17;;;;;;;3.30;2.00;;;12.20;61.90;;;;;;5065361;28;20064;-57
2023/04/30 09:10:43;;;;;;;2.08;1.90;;;12.20;61.80;;;;;;5064490;28;20475;-57
2023/04/30 09:13:10;;;;;;;2.00;1.90;;;12.10;62.10;;;;;;5067539;28;20037;-56
2023/04/30 09:15:40;;;;;;;1.92;1.83;;;12.10;62.00;;;;;;5068176;28;20356;-52
2023/04/30 09:18:16;;;;;;;1.90;1.80;;;12.10;62.00;;;;;;5069791;28;20378;-46
2023/04/30 09:21:01;;;;;;;2.13;1.83;;;12.10;62.00;;;;;;5078718;28;20032;-59
2023/04/30 09:23:28;;;;;;;1.90;1.80;;;12.10;61.90;;;;;;5067704;28;20036;-58
2023/04/30 09:25:53;;;;;;;2.28;1.98;;;12.00;61.70;;;;;;5068490;28;20021;-60
2023/04/30 09:28:24;;;;;;;2.40;2.00;;;12.00;61.70;;;;;;5072916;28;20439;-61
2023/04/30 09:30:50;;;;;;;1.85;1.65;;;12.00;61.70;;;;;;5064949;28;20020;-59
2023/04/30 09:33:16;;;;;;;1.83;1.73;;;12.00;62.00;;;;;;5068631;28;20361;-59
2023/04/30 09:35:42;;;;;;;3.53;2.03;;;12.00;62.10;;;;;;5064904;28;20029;-55
2023/04/30 09:38:23;;;;;;;2.20;1.90;;;11.90;61.90;;;;;;5066342;28;20126;-57
2023/04/30 09:40:49;;;;;;;1.77;1.67;;;11.90;61.90;;;;;;5064984;28;20033;-52
2023/04/30 09:43:15;;;;;;;1.90;1.75;;;12.00;62.10;;;;;;5059815;28;20048;-48
2023/04/30 09:45:50;;;;;;;2.53;1.60;;;12.00;62.10;;;;;;5069078;28;20037;-58
2023/04/30 09:48:17;;;;;;;2.03;1.83;;;12.00;61.90;;;;;;5061084;28;20044;-58
2023/04/30 09:50:43;;;;;;;2.20;2.00;;;12.00;62.20;;;;;;5069816;28;20036;-51
2023/04/30 09:53:13;;;;;;;1.75;1.65;;;12.00;61.80;;;;;;5068426;28;20427;-51
2023/04/30 09:55:42;;;;;;;2.53;1.90;;;12.00;62.50;;;;;;5069019;28;20025;-50
2023/04/30 09:58:09;;;;;;;3.80;2.20;;;12.00;61.80;;;;;;5074369;28;20574;-53
2023/04/30 10:00:36;;;;;;;2.38;2.15;;;12.10;61.70;;;;;;5060596;28;20062;-58
2023/04/30 10:03:08;;;;;;;1.73;1.63;;;12.10;61.70;;;;;;5065829;28;20542;-57
2023/04/30 10:05:46;;;;;;;2.22;2.00;;;12.10;61.80;;;;;;5062623;28;20094;-58
2023/04/30 10:08:23;;;;;;;1.90;1.80;;;12.10;61.80;;;;;;5068033;28;20072;-55
2023/04/30 10:10:59;;;;;;;2.33;2.13;;;12.20;61.60;;;;;;5065524;28;20378;-58
2023/04/30 10:13:30;;;;;;;1.80;1.70;;;12.20;61.50;;;;;;5066277;28;20540;-59
2023/04/30 10:16:00;;;;;;;1.80;1.60;;;12.20;61.60;;;;;;5066360;28;20034;-56
2023/04/30 10:18:34;;;;;;;2.40;1.75;;;12.20;61.40;;;;;;5068325;28;20120;-57
2023/04/30 10:21:08;;;;;;;2.30;2.10;;;12.30;62.10;;;;;;5079096;28;20039;-58
2023/04/30 10:23:42;;;;;;;1.88;1.77;;;12.30;61.40;;;;;;5067870;28;20064;-58
2023/04/30 10:26:11;;;;;;;2.15;1.92;;;12.30;61.60;;;;;;5067896;28;20020;-55
2023/04/30 10:28:37;;;;;;;2.15;1.92;;;12.30;61.50;;;;;;5067357;28;20445;-56
2023/04/30 10:31:05;;;;;;;1.80;1.70;;;12.40;61.30;;;;;;5067074;28;20395;-56
2023/04/30 10:33:48;;;;;;;2.10;1.98;;;12.40;61.20;;;;;;5061608;28;20032;-54
2023/04/30 10:36:37;;;;;;;1.63;1.52;;;12.50;61.20;;;;;;5067314;28;20032;-56
2023/04/30 10:39:04;;;;;;;2.45;1.77;;;12.50;61.40;;;;;;5065964;28;20115;-58
2023/04/30 10:41:30;;;;;;;1.88;1.77;;;12.60;61.10;;;;;;5066299;28;20029;-51
2023/04/30 10:43:58;;;;;;;2.17;1.83;;;12.70;60.70;;;;;;5064623;28;20334;-52
2023/04/30 10:46:24;;;;;;;1.83;1.70;;;12.80;60.90;;;;;;5063984;28;20036;-59
2023/04/30 10:48:56;;;;;;;2.35;2.05;;;12.80;60.80;;;;;;5067956;28;20040;-59
2023/04/30 10:51:22;;;;;;;2.13;1.90;;;12.90;60.50;;;;;;5070796;28;20409;-59
2023/04/30 10:53:53;;;;;;;2.13;1.92;;;12.90;60.20;;;;;;5058828;28;20032;-59
2023/04/30 10:56:31;;;;;;;1.83;1.73;;;12.90;60.10;;;;;;5067064;28;20024;-57
2023/04/30 10:59:03;;;;;;;2.58;1.88;;;13.00;60.00;;;;;;5063832;28;20029;-58
2023/04/30 11:01:29;;;;;;;1.90;1.80;;;13.00;60.00;;;;;;5064637;28;20139;-57
2023/04/30 11:04:09;;;;;;;2.55;2.17;;;13.00;59.80;;;;;;5064859;28;20091;-58
2023/04/30 11:06:53;;;;;;;3.10;2.08;;;13.00;60.00;;;;;;5067787;28;20039;-59
2023/04/30 11:09:37;;;;;;;3.42;2.13;;;13.00;59.90;;;;;;5066624;28;20044;-59
2023/04/30 11:12:11;;;;;;;2.30;2.10;;;13.00;59.90;;;;;;5064857;28;20052;-58
2023/04/30 11:14:43;;;;;;;2.20;1.88;;;13.00;60.10;;;;;;5063814;28;20461;-58
2023/04/30 11:17:10;;;;;;;2.00;1.80;;;13.00;60.00;;;;;;5065647;28;20032;-58
2023/04/30 11:19:45;;;;;;;4.70;2.17;;;13.00;60.00;;;;;;5063841;28;20033;-58
2023/04/30 11:22:10;;;;;;;1.92;1.73;;;13.00;60.00;;;;;;5055285;28;20029;-57
2023/04/30 11:24:58;;;;;;;1.63;1.52;;;13.00;59.90;;;;;;5064852;28;20031;-59
2023/04/30 11:27:28;;;;;;;2.55;1.90;;;13.00;60.20;;;;;;5065024;28;20333;-59
2023/04/30 11:29:55;;;;;;;1.75;1.65;;;13.00;60.50;;;;;;5066072;28;20033;-59
2023/04/30 11:32:23;;;;;;;2.17;1.80;;;13.00;60.10;;;;;;5072483;28;20033;-59
2023/04/30 11:34:49;;;;;;;3.13;2.10;;;13.10;60.20;;;;;;5063460;28;20048;-60
2023/04/30 11:37:32;;;;;;;1.67;1.55;;;13.10;60.00;;;;;;5059146;28;20036;-59
2023/04/30 11:40:07;;;;;;;1.73;1.63;;;13.10;59.70;;;;;;5064885;28;20447;-59
2023/04/30 11:42:33;;;;;;;1.77;1.67;;;13.10;59.70;;;;;;5061003;28;20454;-59
2023/04/30 11:45:19;;;;;;;1.77;1.67;;;13.00;59.70;;;;;;5064068;28;20374;-59
2023/04/30 11:47:53;;;;;;;1.95;1.80;;;13.00;59.70;;;;;;5058281;28;20028;-60
2023/04/30 11:50:30;;;;;;;1.45;1.42;;;13.00;59.60;;;;;;5065301;28;20060;-57
2023/04/30 11:52:57;;;;;;;1.98;1.67;;;13.00;59.70;;;;;;5068929;28;20072;-59
2023/04/30 11:55:25;;;;;;;1.73;1.63;;;13.00;60.00;;;;;;5073969;28;20032;-59
2023/04/30 11:57:54;;;;;;;1.85;1.60;;;12.90;59.80;;;;;;5073491;28;20036;-59
2023/04/30 12:00:28;;;;;;;1.65;1.55;;;12.90;59.70;;;;;;5074936;28;20397;-56
2023/04/30 12:02:54;;;;;;;2.08;1.83;;;12.90;59.40;;;;;;5067000;28;20037;-59
2023/04/30 12:05:26;;;;;;;2.13;1.73;;;12.90;59.30;;;;;;5064072;28;20028;-57
2023/04/30 12:07:58;;;;;;;1.70;1.60;;;12.90;59.60;;;;;;5068425;28;20095;-57
2023/04/30 12:10:27;;;;;;;1.95;1.70;;;12.80;59.40;;;;;;5068808;28;20156;-57
2023/04/30 12:12:53;;;;;;;2.20;1.70;;;12.80;59.40;;;;;;5067915;28;20046;-58
2023/04/30 12:15:26;;;;;;;1.67;1.58;;;12.80;59.70;;;;;;5066922;28;20040;-58
2023/04/30 12:17:56;;;;;;;2.05;1.85;;;12.90;59.80;;;;;;5068902;28;20447;-58
2023/04/30 12:20:27;;;;;;;2.53;1.70;;;12.80;59.40;;;;;;5067125;28;20150;-57
2023/04/30 12:22:53;;;;;;;2.30;1.92;;;12.80;59.50;;;;;;5068782;28;20036;-58
2023/04/30 12:25:22;;;;;;;2.42;1.98;;;12.80;59.30;;;;;;5068877;28;20035;-58
2023/04/30 12:27:53;;;;;;;1.98;1.80;;;12.80;59.10;;;;;;5067903;28;20074;-58
2023/04/30 12:30:25;;;;;;;1.75;1.65;;;12.80;59.10;;;;;;5065313;28;20631;-56
2023/04/30 12:32:53;;;;;;;1.88;1.77;;;12.80;59.40;;;;;;5068908;28;20114;-55
2023/04/30 12:35:23;;;;;;;1.75;1.65;;;12.80;59.20;;;;;;5069727;28;20043;-47
2023/04/30 12:37:52;;;;;;;2.08;1.75;;;12.80;58.90;;;;;;5066117;28;20378;-49
2023/04/30 12:40:26;;;;;;;2.72;1.90;;;12.80;59.10;;;;;;5068254;28;20036;-57
2023/04/30 12:43:08;;;;;;;1.80;1.70;;;12.80;59.20;;;;;;5066269;28;20041;-59
2023/04/30 12:45:54;;;;;;;1.92;1.80;;;12.80;59.10;;;;;;5067309;28;20028;-56
2023/04/30 12:48:22;;;;;;;1.80;1.70;;;12.80;59.10;;;;;;5067959;28;20070;-57
2023/04/30 12:50:54;;;;;;;2.00;1.80;;;12.80;59.20;;;;;;5068698;28;20040;-55
2023/04/30 12:53:20;;;;;;;2.25;1.60;;;12.90;59.20;;;;;;5064703;28;20101;-57